createdAt,value
2019-04-11T00:00:38.256Z,4.70
2019-04-11T00:03:09.123Z,3.93
2019-04-11T00:05:37.707Z,3.73
2019-04-11T00:08:06.458Z,4.17
2019-04-11T00:10:35.463Z,4.07
2019-04-11T00:13:14.232Z,3.93
2019-04-11T00:15:37.051Z,2.80
2019-04-11T00:18:06.149Z,3.73
2019-04-11T00:20:36.084Z,4.07
2019-04-11T00:23:06.084Z,3.67
2019-04-11T00:25:35.816Z,3.63
2019-04-11T00:28:05.726Z,3.70
2019-04-11T00:30:34.826Z,3.57
2019-04-11T00:33:03.460Z,4.30
2019-04-11T00:35:33.486Z,4.67
2019-04-11T00:38:02.334Z,4.10
2019-04-11T00:40:31.189Z,3.50
2019-04-11T00:43:00.987Z,4.30
2019-04-11T00:45:29.756Z,5.90
2019-04-11T00:47:59.527Z,4.77
2019-04-11T00:50:29.097Z,3.93
2019-04-11T00:52:58.647Z,4.30
2019-04-11T00:55:27.229Z,4.80
2019-04-11T00:57:57.002Z,3.77
2019-04-11T01:00:25.678Z,3.13
2019-04-11T01:02:54.234Z,3.67
2019-04-11T01:05:23.545Z,5.47
2019-04-11T01:07:53.200Z,4.37
2019-04-11T01:10:22.353Z,5.43
2019-04-11T01:12:51.309Z,3.93
2019-04-11T01:15:21.656Z,4.67
2019-04-11T01:17:50.244Z,3.80
2019-04-11T01:20:19.514Z,3.67
2019-04-11T01:22:48.708Z,3.53
2019-04-11T01:25:17.248Z,4.80
2019-04-11T01:27:45.920Z,3.73
2019-04-11T01:30:16.378Z,4.50
2019-04-11T01:32:44.948Z,4.73
2019-04-11T01:35:13.704Z,4.67
2019-04-11T01:37:42.270Z,3.40
2019-04-11T01:40:11.804Z,3.40
2019-04-11T01:42:41.670Z,6.37
2019-04-11T01:45:11.504Z,3.23
2019-04-11T01:47:47.962Z,5.17
2019-04-11T01:50:18.949Z,4.70
2019-04-11T01:52:48.677Z,3.90
2019-04-11T01:55:18.483Z,4.63
2019-04-11T01:57:47.165Z,3.97
2019-04-11T02:00:34.381Z,5.07
2019-04-11T02:03:04.631Z,5.37
2019-04-11T02:05:34.958Z,5.63
2019-04-11T02:08:03.979Z,5.30
2019-04-11T02:10:32.838Z,3.97
2019-04-11T02:13:01.762Z,4.87
2019-04-11T02:15:30.502Z,3.73
2019-04-11T02:17:59.305Z,4.03
2019-04-11T02:20:29.084Z,3.70
2019-04-11T02:23:02.558Z,5.17
2019-04-11T02:25:36.550Z,4.03
2019-04-11T02:28:06.896Z,6.00
2019-04-11T02:30:39.191Z,5.47
2019-04-11T02:33:09.413Z,5.77
2019-04-11T02:35:39.662Z,4.70
2019-04-11T02:38:09.502Z,3.50
2019-04-11T02:40:38.784Z,5.93
2019-04-11T02:43:09.162Z,3.97
2019-04-11T02:45:50.872Z,3.60
2019-04-11T02:48:11.488Z,4.23
2019-04-11T02:50:39.354Z,3.83
2019-04-11T02:53:09.614Z,5.37
2019-04-11T02:55:38.801Z,3.40
2019-04-11T02:58:08.011Z,3.60
2019-04-11T03:00:37.627Z,3.20
2019-04-11T03:03:08.503Z,4.93
2019-04-11T03:05:37.533Z,4.17
2019-04-11T03:08:11.526Z,4.20
2019-04-11T03:10:37.767Z,4.67
2019-04-11T03:13:08.260Z,5.13
2019-04-11T03:15:48.901Z,4.17
2019-04-11T03:18:10.029Z,7.70
2019-04-11T03:20:45.728Z,5.83
2019-04-11T03:23:10.870Z,4.43
2019-04-11T03:25:38.618Z,4.43
2019-04-11T03:28:13.368Z,5.37
2019-04-11T03:30:56.859Z,5.53
2019-04-11T03:38:32.518Z,4.67
2019-04-11T03:40:57.941Z,4.23
2019-04-11T03:43:24.168Z,4.53
2019-04-11T03:46:01.438Z,4.63
2019-04-11T03:48:27.672Z,4.60
2019-04-11T03:50:42.343Z,4.23
2019-04-11T03:53:11.651Z,5.60
2019-04-11T03:55:40.929Z,5.40
2019-04-11T03:58:10.485Z,5.60
2019-04-11T04:00:43.179Z,5.27
2019-04-11T04:03:11.209Z,5.70
2019-04-11T04:05:42.159Z,5.73
2019-04-11T04:08:10.870Z,4.67
2019-04-11T04:10:41.845Z,4.23
2019-04-11T04:13:15.322Z,4.40
2019-04-11T04:15:59.724Z,5.27
2019-04-11T04:18:23.915Z,5.03
2019-04-11T04:21:01.853Z,5.90
2019-04-11T04:23:33.710Z,6.83
2019-04-11T04:26:03.217Z,4.90
2019-04-11T04:28:33.806Z,5.13
2019-04-11T04:31:04.388Z,4.90
2019-04-11T04:33:35.480Z,5.03
2019-04-11T04:36:07.687Z,5.17
2019-04-11T04:38:33.937Z,4.33
2019-04-11T04:41:18.895Z,5.20
2019-04-11T04:43:36.562Z,4.43
2019-04-11T04:46:23.698Z,5.23
2019-04-11T04:48:35.491Z,8.67
2019-04-11T04:51:08.863Z,4.13
2019-04-11T04:53:35.549Z,4.40
2019-04-11T04:56:04.299Z,6.43
2019-04-11T04:58:33.963Z,4.40
2019-04-11T05:01:04.175Z,5.00
2019-04-11T05:03:34.309Z,5.73
2019-04-11T05:06:04.045Z,4.83
2019-04-11T05:08:34.571Z,5.60
2019-04-11T05:11:04.535Z,5.40
2019-04-11T05:13:34.462Z,7.00
2019-04-11T05:16:14.517Z,6.73
2019-04-11T05:18:34.715Z,4.97
2019-04-11T05:21:03.366Z,4.47
2019-04-11T05:23:31.951Z,5.17
2019-04-11T05:26:01.554Z,5.43
2019-04-11T05:28:30.239Z,6.10
2019-04-11T05:30:58.842Z,4.83
2019-04-11T05:33:27.477Z,4.83
2019-04-11T05:35:56.427Z,4.80
2019-04-11T05:38:25.298Z,4.53
2019-04-11T05:40:54.580Z,5.10
2019-04-11T05:43:27.956Z,6.43
2019-04-11T05:45:55.055Z,6.83
2019-04-11T05:48:37.078Z,6.40
2019-04-11T05:51:06.620Z,4.77
2019-04-11T05:53:36.988Z,5.97
2019-04-11T05:56:07.067Z,5.43
2019-04-11T05:58:36.670Z,4.70
2019-04-11T06:01:14.442Z,4.97
2019-04-11T06:03:45.317Z,5.20
2019-04-11T06:06:14.438Z,6.10
2019-04-11T06:08:44.173Z,5.47
2019-04-11T06:11:24.140Z,6.37
2019-04-11T06:13:54.482Z,4.57
2019-04-11T06:16:35.674Z,5.30
2019-04-11T06:18:58.692Z,5.47
2019-04-11T06:21:28.999Z,5.10
2019-04-11T06:24:16.229Z,4.57
2019-04-11T06:26:55.155Z,4.70
2019-04-11T06:29:29.569Z,7.00
2019-04-11T06:32:03.534Z,5.23
2019-04-11T06:34:45.518Z,4.63
2019-04-11T06:37:21.620Z,4.60
2019-04-11T06:40:02.415Z,4.77
2019-04-11T06:42:32.729Z,4.13
2019-04-11T06:45:21.808Z,4.97
2019-04-11T06:47:52.039Z,6.67
2019-04-11T06:50:25.143Z,4.57
2019-04-11T06:52:53.950Z,5.67
2019-04-11T06:55:24.095Z,4.23
2019-04-11T06:57:54.321Z,4.07
2019-04-11T07:00:23.149Z,6.70
2019-04-11T07:02:57.140Z,6.63
2019-04-11T07:05:27.410Z,5.00
2019-04-11T07:07:57.847Z,2.97
2019-04-11T07:10:28.563Z,5.80
2019-04-11T07:13:01.742Z,4.57
2019-04-11T07:15:31.973Z,4.13
2019-04-11T07:18:18.368Z,3.53
2019-04-11T07:20:52.343Z,3.83
2019-04-11T07:23:38.765Z,4.57
2019-04-11T07:26:14.527Z,4.47
2019-04-11T07:28:44.728Z,3.43
2019-04-11T07:31:21.571Z,3.30
2019-04-11T07:33:56.212Z,3.97
2019-04-11T07:36:42.197Z,4.50
2019-04-11T07:39:12.909Z,5.00
2019-04-11T07:41:43.894Z,4.47
2019-04-11T07:44:15.646Z,3.57
2019-04-11T07:46:51.639Z,3.50
2019-04-11T07:49:37.139Z,4.70
2019-04-11T07:52:08.847Z,5.23
2019-04-11T07:54:37.548Z,4.80
2019-04-11T07:57:10.464Z,5.03
2019-04-11T07:59:49.795Z,5.53
2019-04-11T08:02:24.366Z,3.13
2019-04-11T08:05:04.483Z,5.00
2019-04-11T08:07:49.663Z,3.63
2019-04-11T08:10:20.587Z,9.13
2019-04-11T08:12:49.913Z,5.87
2019-04-11T08:15:35.907Z,5.17
2019-04-11T08:18:06.196Z,5.47
2019-04-11T08:20:53.286Z,4.17
2019-04-11T08:23:23.509Z,4.87
2019-04-11T08:25:56.366Z,5.77
2019-04-11T08:28:25.002Z,5.07
2019-04-11T08:31:11.554Z,4.70
2019-04-11T08:33:40.528Z,5.07
2019-04-11T08:36:26.983Z,4.43
2019-04-11T08:38:56.447Z,6.47
2019-04-11T08:41:29.648Z,4.30
2019-04-11T08:43:59.393Z,4.80
2019-04-11T08:46:30.854Z,4.87
2019-04-11T08:49:17.139Z,5.83
2019-04-11T08:51:47.414Z,4.83
2019-04-11T08:54:21.522Z,6.33
2019-04-11T08:56:50.138Z,5.80
2019-04-11T08:59:37.781Z,6.90
2019-04-11T09:02:06.966Z,5.40
2019-04-11T09:04:37.122Z,5.63
2019-04-11T09:07:07.265Z,7.70
2019-04-11T09:09:53.718Z,6.50
2019-04-11T09:12:22.533Z,6.67
2019-04-11T09:14:52.803Z,6.33
2019-04-11T09:17:23.379Z,6.50
2019-04-11T09:19:57.039Z,8.07
2019-04-11T09:22:37.278Z,4.93
2019-04-11T09:25:11.117Z,5.30
2019-04-11T09:27:54.129Z,4.57
2019-04-11T09:30:31.098Z,5.77
2019-04-11T09:33:04.744Z,5.73
2019-04-11T09:35:37.912Z,5.20
2019-04-11T09:38:08.448Z,6.83
2019-04-11T09:40:54.735Z,6.53
2019-04-11T09:43:26.181Z,7.13
2019-04-11T09:45:59.765Z,5.57
2019-04-11T09:48:46.436Z,4.60
2019-04-11T09:51:19.194Z,6.10
2019-04-11T09:53:50.691Z,5.30
2019-04-11T09:56:37.878Z,7.70
2019-04-11T09:59:25.038Z,8.47
2019-04-11T10:01:58.324Z,7.90
2019-04-11T10:04:29.680Z,6.87
2019-04-11T10:07:17.300Z,6.97
2019-04-11T10:09:50.634Z,7.23
2019-04-11T10:12:38.222Z,5.90
2019-04-11T10:15:09.325Z,5.47
2019-04-11T10:17:40.214Z,6.77
2019-04-11T10:20:10.768Z,5.43
2019-04-11T10:22:56.372Z,5.73
2019-04-11T10:25:28.321Z,5.17
2019-04-11T10:28:07.318Z,5.50
2019-04-11T10:30:53.710Z,5.07
2019-04-11T10:33:29.614Z,4.97
2019-04-11T10:36:05.402Z,7.40
2019-04-11T10:38:34.070Z,6.47
2019-04-11T10:41:04.357Z,5.53
2019-04-11T10:43:36.285Z,6.07
2019-04-11T10:46:07.162Z,6.87
2019-04-11T10:48:54.782Z,5.63
2019-04-11T10:51:42.303Z,6.60
2019-04-11T10:54:13.565Z,5.40
2019-04-11T10:56:49.590Z,5.03
2019-04-11T10:59:18.162Z,7.13
2019-04-11T11:01:48.547Z,7.03
2019-04-11T11:04:21.482Z,6.77
2019-04-11T11:06:51.891Z,6.03
2019-04-11T11:09:38.955Z,5.87
2019-04-11T11:12:21.232Z,5.47
2019-04-11T11:15:07.126Z,5.43
2019-04-11T11:18:24.060Z,4.97
2019-04-11T11:20:39.257Z,6.50
2019-04-11T11:23:10.177Z,5.00
2019-04-11T11:25:50.006Z,4.93
2019-04-11T11:28:21.670Z,4.47
2019-04-11T11:31:07.443Z,5.67
2019-04-11T11:33:36.599Z,4.83
2019-04-11T11:36:19.398Z,6.83
2019-04-11T11:38:50.208Z,4.60
2019-04-11T11:41:36.895Z,5.27
2019-04-11T11:44:07.662Z,5.77
2019-04-11T11:46:54.188Z,4.87
2019-04-11T11:49:38.935Z,5.60
2019-04-11T11:52:03.801Z,5.67
2019-04-11T11:54:34.037Z,5.53
2019-04-11T11:57:04.638Z,5.30
2019-04-11T11:59:40.823Z,6.00
2019-04-11T12:02:15.651Z,4.97
2019-04-11T12:04:44.259Z,6.03
2019-04-11T12:07:23.347Z,5.87
2019-04-11T12:10:09.568Z,6.17
2019-04-11T12:12:40.044Z,5.20
2019-04-11T12:15:14.230Z,5.83
2019-04-11T12:17:57.558Z,4.33
2019-04-11T12:20:36.699Z,5.10
2019-04-11T12:23:06.955Z,4.93
2019-04-11T12:25:37.164Z,4.33
2019-04-11T12:28:25.741Z,4.13
2019-04-11T12:31:00.567Z,5.10
2019-04-11T12:33:43.838Z,4.27
2019-04-11T12:36:14.686Z,5.17
2019-04-11T12:38:54.882Z,7.00
2019-04-11T12:41:28.583Z,4.50
2019-04-11T12:44:04.872Z,4.37
2019-04-11T12:46:51.347Z,5.90
2019-04-11T12:49:27.319Z,4.97
2019-04-11T12:52:13.560Z,3.87
2019-04-11T12:54:49.548Z,4.67
2019-04-11T12:57:22.487Z,4.13
2019-04-11T12:59:52.715Z,5.67
2019-04-11T13:02:40.823Z,4.60
2019-04-11T13:05:11.124Z,4.00
2019-04-11T13:07:56.346Z,4.70
2019-04-11T13:10:25.120Z,5.07
2019-04-11T13:13:07.387Z,5.57
2019-04-11T13:15:37.795Z,4.33
2019-04-11T13:18:24.439Z,5.67
2019-04-11T13:21:09.251Z,4.37
2019-04-11T13:23:57.144Z,4.77
2019-04-11T13:26:43.415Z,5.40
2019-04-11T13:29:16.363Z,4.90
2019-04-11T13:31:54.966Z,3.50
2019-04-11T13:34:25.228Z,4.83
2019-04-11T13:36:58.165Z,5.03
2019-04-11T13:39:27.631Z,3.87
2019-04-11T13:41:57.908Z,5.57
2019-04-11T13:44:26.494Z,4.20
2019-04-11T13:47:12.725Z,3.13
2019-04-11T13:49:45.676Z,5.63
2019-04-11T13:52:27.651Z,3.43
2019-04-11T13:55:03.895Z,4.87
2019-04-11T13:57:49.906Z,3.37
2019-04-11T14:00:37.883Z,3.70
2019-04-11T14:03:24.266Z,3.53
2019-04-11T14:05:52.883Z,4.70
2019-04-11T14:08:41.131Z,4.80
2019-04-11T14:11:13.775Z,3.93
2019-04-11T14:13:44.111Z,4.87
2019-04-11T14:16:17.379Z,4.10
2019-04-11T14:18:56.447Z,3.70
2019-04-11T14:21:26.879Z,4.47
2019-04-11T14:24:05.700Z,3.90
2019-04-11T14:26:36.420Z,4.60
2019-04-11T14:29:22.910Z,4.93
2019-04-11T14:31:53.857Z,4.27
2019-04-11T14:34:41.310Z,3.40
2019-04-11T14:37:17.455Z,3.30
2019-04-11T14:39:53.099Z,3.80
2019-04-11T14:42:42.185Z,3.70
2019-04-11T14:45:11.365Z,3.70
2019-04-11T14:47:57.494Z,3.93
2019-04-11T14:50:27.730Z,3.57
2019-04-11T14:53:16.695Z,3.70
2019-04-11T14:55:44.191Z,3.87
2019-04-11T14:58:17.343Z,4.00
2019-04-11T15:00:46.014Z,5.80
2019-04-11T15:03:18.608Z,3.90
2019-04-11T15:05:51.865Z,4.17
2019-04-11T15:08:22.079Z,5.00
2019-04-11T15:10:57.830Z,3.77
2019-04-11T15:13:28.036Z,3.23
2019-04-11T15:15:58.269Z,3.23
2019-04-11T15:18:27.445Z,3.13
2019-04-11T15:20:57.663Z,3.13
2019-04-11T15:23:27.871Z,2.97
2019-04-11T15:26:13.902Z,5.47
2019-04-11T15:28:44.460Z,4.17
2019-04-11T15:31:39.079Z,3.77
2019-04-11T15:34:11.642Z,3.30
2019-04-11T15:36:47.855Z,3.50
2019-04-11T15:39:21.003Z,4.83
2019-04-11T15:41:56.380Z,3.27
2019-04-11T15:44:38.890Z,4.13
2019-04-11T15:47:12.050Z,3.60
2019-04-11T15:49:46.567Z,3.77
2019-04-11T15:52:16.550Z,3.90
2019-04-11T15:54:49.475Z,4.17
2019-04-11T15:57:22.410Z,3.93
2019-04-11T16:00:08.871Z,4.23
2019-04-11T16:02:47.702Z,3.57
2019-04-11T16:05:34.403Z,3.13
2019-04-11T16:08:13.696Z,3.63
2019-04-11T16:10:59.683Z,3.63
2019-04-11T16:13:41.771Z,3.93
2019-04-11T16:16:12.205Z,3.33
2019-04-11T16:18:58.531Z,4.43
2019-04-11T16:21:44.795Z,3.00
2019-04-11T16:24:17.415Z,3.93
2019-04-11T16:26:47.678Z,2.77
2019-04-11T16:29:26.609Z,3.10
2019-04-11T16:31:56.840Z,4.67
2019-04-11T16:34:47.671Z,3.20
2019-04-11T16:37:06.606Z,4.57
2019-04-11T16:39:55.005Z,3.03
2019-04-11T16:42:24.820Z,3.03
2019-04-11T16:44:55.874Z,2.80
2019-04-11T16:47:35.011Z,2.93
2019-04-11T16:50:03.644Z,4.30
2019-04-11T16:52:32.235Z,3.27
2019-04-11T16:55:00.807Z,3.53
2019-04-11T16:57:29.403Z,2.67
2019-04-11T16:59:57.985Z,4.63
2019-04-11T17:02:28.974Z,2.90
2019-04-11T17:04:56.782Z,2.77
2019-04-11T17:07:43.274Z,3.50
2019-04-11T17:10:13.552Z,3.80
2019-04-11T17:12:42.143Z,3.23
2019-04-11T17:15:10.851Z,3.73
2019-04-11T17:17:39.434Z,5.27
2019-04-11T17:20:08.369Z,4.23
2019-04-11T17:22:37.453Z,3.80
2019-04-11T17:25:06.518Z,3.57
2019-04-11T17:27:35.154Z,3.03
2019-04-11T17:30:05.700Z,2.77
2019-04-11T17:32:34.242Z,3.60
2019-04-11T17:35:02.806Z,2.93
2019-04-11T17:37:33.228Z,3.40
2019-04-11T17:40:01.603Z,3.07
2019-04-11T17:42:30.190Z,3.73
2019-04-11T17:44:58.754Z,3.83
2019-04-11T17:47:27.561Z,4.37
2019-04-11T17:49:56.102Z,2.70
2019-04-11T17:52:24.785Z,5.17
2019-04-11T17:54:54.334Z,3.80
2019-04-11T17:57:26.686Z,2.87
2019-04-11T17:59:53.538Z,2.80
2019-04-11T18:02:22.119Z,2.73
2019-04-11T18:04:50.684Z,2.23
2019-04-11T18:07:19.255Z,2.70
2019-04-11T18:09:47.830Z,2.40
2019-04-11T18:12:16.833Z,1.80
2019-04-11T18:14:45.483Z,2.23
2019-04-11T18:17:16.390Z,2.90
2019-04-11T18:19:44.293Z,2.27
2019-04-11T18:22:13.645Z,2.40
2019-04-11T18:24:42.864Z,4.17
2019-04-11T18:27:11.433Z,6.07
2019-04-11T18:29:40.014Z,6.20
2019-04-11T18:32:08.659Z,7.00
2019-04-11T18:34:37.317Z,14.40
2019-04-11T18:37:05.883Z,8.57
2019-04-11T18:39:36.015Z,6.77
2019-04-11T18:42:05.217Z,3.70
2019-04-11T18:44:34.329Z,3.10
2019-04-11T18:47:03.477Z,2.43
2019-04-11T18:49:32.103Z,2.03
2019-04-11T18:52:00.672Z,2.70
2019-04-11T18:54:29.262Z,1.90
2019-04-11T18:56:57.828Z,2.80
2019-04-11T18:59:26.405Z,2.50
2019-04-11T19:01:54.974Z,2.00
2019-04-11T19:04:32.349Z,2.73
2019-04-11T19:06:53.770Z,2.53
2019-04-11T19:09:22.424Z,2.57
2019-04-11T19:11:51.520Z,2.83
2019-04-11T19:14:20.176Z,2.10
2019-04-11T19:16:48.785Z,2.20
2019-04-11T19:19:18.587Z,2.43
2019-04-11T19:21:50.791Z,2.17
2019-04-11T19:24:17.970Z,2.93
2019-04-11T19:26:46.983Z,2.97
2019-04-11T19:29:15.630Z,2.50
2019-04-11T19:31:44.364Z,2.50
2019-04-11T19:34:12.915Z,1.90
2019-04-11T19:36:42.463Z,3.30
2019-04-11T19:39:13.918Z,1.90
2019-04-11T19:41:41.911Z,2.03
2019-04-11T19:44:10.550Z,2.10
2019-04-11T19:46:40.889Z,1.67
2019-04-11T19:49:09.371Z,1.70
2019-04-11T19:51:37.931Z,2.07
2019-04-11T19:54:07.757Z,2.20
2019-04-11T19:56:38.010Z,2.33
2019-04-11T19:59:06.721Z,2.60
2019-04-11T20:01:35.289Z,2.40
2019-04-11T20:04:03.996Z,2.17
2019-04-11T20:06:32.590Z,2.43
2019-04-11T20:09:01.175Z,2.13
2019-04-11T20:11:30.731Z,1.93
2019-04-11T20:14:00.077Z,2.37
2019-04-11T20:16:40.885Z,4.27
2019-04-11T20:19:00.921Z,2.60
2019-04-11T20:21:29.663Z,3.27
2019-04-11T20:23:58.592Z,3.03
2019-04-11T20:26:27.287Z,3.07
2019-04-11T20:28:56.007Z,2.13
2019-04-11T20:31:24.600Z,2.10
2019-04-11T20:33:53.231Z,2.73
2019-04-11T20:36:32.792Z,2.37
2019-04-11T20:38:52.113Z,1.73
2019-04-11T20:41:23.156Z,2.23
2019-04-11T20:43:56.009Z,1.83
2019-04-11T20:46:21.857Z,2.13
2019-04-11T20:48:50.982Z,2.17
2019-04-11T20:51:19.822Z,1.90
2019-04-11T20:53:48.971Z,2.17
2019-04-11T20:56:24.193Z,2.83
2019-04-11T20:58:48.264Z,2.53
2019-04-11T21:01:17.212Z,2.03
2019-04-11T21:03:45.827Z,3.23
2019-04-11T21:06:14.416Z,2.07
2019-04-11T21:08:42.983Z,2.37
2019-04-11T21:11:11.576Z,2.03
2019-04-11T21:13:40.212Z,2.20
2019-04-11T21:16:09.031Z,2.20
2019-04-11T21:18:37.600Z,2.00
2019-04-11T21:21:06.181Z,2.10
2019-04-11T21:23:34.751Z,2.13
2019-04-11T21:26:03.343Z,2.10
2019-04-11T21:28:31.903Z,2.13
2019-04-11T21:31:00.840Z,2.20
2019-04-11T21:33:29.428Z,2.33
2019-04-11T21:35:58.007Z,1.80
2019-04-11T21:38:28.133Z,1.87
2019-04-11T21:40:56.803Z,2.70
2019-04-11T21:43:25.380Z,1.90
2019-04-11T21:45:53.963Z,2.40
2019-04-11T21:48:22.586Z,2.03
2019-04-11T21:50:51.186Z,2.50
2019-04-11T21:53:19.750Z,3.43
2019-04-11T21:55:48.449Z,3.67
2019-04-11T21:58:19.224Z,2.23
2019-04-11T22:00:51.815Z,2.13
2019-04-11T22:03:24.034Z,3.90
2019-04-11T22:05:51.774Z,2.10
2019-04-11T22:08:20.336Z,2.43
2019-04-11T22:10:48.932Z,2.00
2019-04-11T22:13:17.486Z,2.20
2019-04-11T22:15:46.072Z,2.00
2019-04-11T22:18:16.717Z,2.03
2019-04-11T22:20:45.785Z,2.70
2019-04-11T22:23:14.416Z,1.63
2019-04-11T22:25:43.001Z,2.37
2019-04-11T22:28:11.635Z,2.43
2019-04-11T22:30:40.225Z,1.90
2019-04-11T22:33:10.426Z,2.90
2019-04-11T22:35:39.015Z,2.33
2019-04-11T22:38:07.603Z,1.80
2019-04-11T22:40:36.182Z,2.40
2019-04-11T22:43:07.329Z,1.50
2019-04-11T22:45:37.660Z,2.83
2019-04-11T22:48:08.481Z,2.17
2019-04-11T22:50:35.478Z,1.80
2019-04-11T22:53:04.071Z,2.07
2019-04-11T22:55:32.626Z,2.60
2019-04-11T22:58:01.182Z,2.23
2019-04-11T23:00:29.762Z,2.50
2019-04-11T23:03:17.887Z,2.07
2019-04-11T23:05:46.942Z,2.00
2019-04-11T23:08:18.850Z,1.90
2019-04-11T23:10:46.931Z,2.07
2019-04-11T23:13:16.397Z,1.67
2019-04-11T23:15:45.025Z,1.63
2019-04-11T23:18:14.144Z,2.27
2019-04-11T23:20:44.086Z,2.47
2019-04-11T23:23:14.087Z,2.13
2019-04-11T23:25:42.784Z,2.43
2019-04-11T23:28:15.582Z,2.17
2019-04-11T23:30:41.989Z,2.13
2019-04-11T23:33:10.621Z,2.33
2019-04-11T23:35:39.322Z,2.10
2019-04-11T23:38:08.090Z,2.10
2019-04-11T23:40:36.771Z,2.37
2019-04-11T23:43:05.394Z,2.10
2019-04-11T23:45:34.146Z,3.33
2019-04-11T23:48:02.830Z,2.23
2019-04-11T23:50:31.437Z,2.97
2019-04-11T23:53:00.247Z,2.23
2019-04-11T23:55:30.689Z,1.90
2019-04-11T23:58:01.733Z,2.33
